Thunder radar more information blitzortung!


avis per Pluja more information rain snow radar


Visita la nostra xarxa de llocs de meteo:

Template documentation
and downloads

And another site



Rain From: 17-10-2018 23:00 Until: 18-10-2018 16:59 warning for: Rain Level: Yellow info button

Pagina Historial Weather Underground text

Diari Resum Juny 2, 2016 Unitats:  Mètric    Imperial   Tant
« Previous Dia
SegĂźent Dia »
Diari Setmana Mensual Anual Personalitzada
  Maxima: Minima: Media:
Temperatura: -17.8 °C -11.2 °C -6.6 °C
Punt de rosada: -17.8 °C -13.3 °C -12 °C
Humitat: Humidity % 38 % 55 %
Wind Speed: 0 km/h 0 km/h 10.5 km/h
RĂ fegues de vent: 0 km/h - -
Vent:- - SSE
Pression baro: 0 hPa 34222.3 hPa -
Precipitacions: 0 mm    
Historical Graphs
 
 
Dades de taula per Juny 2, 2016
Temps Temperatura Punt de rosada Pression baro Vent Wind Speed RĂ fegues de vent Humitat Rainfall Rate (Hourly)
-17.8 °C -17.8 °C 0 hPa Calm     Humidity % 0 mm
00:05 -10.6 °C -12.7 °C 34428.8 hPa WSW 2.6 km/h 5.1 km/h 77 % 0 mm
00:15 -10.6 °C -12.7 °C 34428.8 hPa Calm     78 % 0 mm
00:25 -10.6 °C -12.6 °C 34428.8 hPa WSW 2.6 km/h 2.6 km/h 79 % 0 mm
00:35 -10.7 °C -12.7 °C 34428.8 hPa Calm     79 % 0 mm
00:45 -10.8 °C -12.9 °C 34428.8 hPa Calm   2.6 km/h 78 % 0 mm
00:55 -10.9 °C -12.9 °C 34462.7 hPa Calm     79 % 0 mm
01:05 -11 °C -12.9 °C 34462.7 hPa Calm     79 % 0 mm
01:15 -11.1 °C -13 °C 34462.7 hPa Calm   2.6 km/h 79 % 0 mm
01:25 -11.2 °C -13.1 °C 34428.8 hPa NE 2.6 km/h 2.6 km/h 79 % 0 mm
01:35 -11.2 °C -13.3 °C 34462.7 hPa NNE 2.6 km/h 5.1 km/h 78 % 0 mm
01:45 -11.2 °C -13.2 °C 34462.7 hPa WSW 2.6 km/h 2.6 km/h 79 % 0 mm
01:55 -11.2 °C -13.1 °C 34462.7 hPa SW 2.6 km/h 2.6 km/h 80 % 0 mm
02:05 -11.2 °C -13.2 °C 34462.7 hPa SW 5.1 km/h 5.1 km/h 79 % 0 mm
02:15 -11.2 °C -13 °C 34462.7 hPa SW 5.1 km/h 7.7 km/h 80 % 0 mm
02:25 -11.1 °C -12.9 °C 34462.7 hPa SW 5.1 km/h 5.1 km/h 81 % 0 mm
02:35 -11 °C -12.7 °C 34462.7 hPa Calm   5.1 km/h 82 % 0 mm
02:45 -10.8 °C -12.4 °C 34462.7 hPa Calm   5.1 km/h 82 % 0 mm
02:55 -10.5 °C -12.3 °C 34462.7 hPa SW 2.6 km/h 5.1 km/h 81 % 0 mm
03:05 -10.3 °C -12.1 °C 34462.7 hPa SW 2.6 km/h 2.6 km/h 81 % 0 mm
03:15 -10.1 °C -11.9 °C 34462.7 hPa South 2.6 km/h 2.6 km/h 80 % 0 mm
03:25 -9.8 °C -11.8 °C 34462.7 hPa SSW 5.1 km/h 5.1 km/h 79 % 0 mm
03:35 -9.6 °C -11.6 °C 34462.7 hPa SSW 2.6 km/h 5.1 km/h 79 % 0 mm
03:45 -9 °C -11.2 °C 34462.7 hPa South 5.1 km/h 5.1 km/h 78 % 0 mm
03:55 -9.1 °C -11.3 °C 34462.7 hPa South 2.6 km/h 5.1 km/h 77 % 0 mm
04:05 -8.6 °C -10.9 °C 34462.7 hPa SSW 5.1 km/h 5.1 km/h 76 % 0 mm
04:25 -8.2 °C -11.1 °C 34462.7 hPa ESE 7.7 km/h 10.3 km/h 72 % 0 mm
04:35 -8.1 °C -10.9 °C 34462.7 hPa SSE 7.7 km/h 7.7 km/h 72 % 0 mm
04:45 -7.8 °C -10.9 °C 34462.7 hPa SW 2.6 km/h 7.7 km/h 70 % 0 mm
04:55 -7.6 °C -10.8 °C 34462.7 hPa East 2.6 km/h 10.3 km/h 69 % 0 mm
05:05 -7.5 °C -10.8 °C 34462.7 hPa South 2.6 km/h 10.3 km/h 68 % 0 mm
05:15 -7.3 °C -10.9 °C 34462.7 hPa East 5.1 km/h 15.6 km/h 66 % 0 mm
05:25 -7.1 °C -11 °C 34462.7 hPa ENE 5.1 km/h 7.7 km/h 64 % 0 mm
05:35 -6.4 °C -10.6 °C 34462.7 hPa SE 2.6 km/h 7.7 km/h 62 % 0 mm
05:45 -6.3 °C -10.9 °C 34462.7 hPa SSW 2.6 km/h 10.3 km/h 59 % 0 mm
05:55 -6.5 °C -11.2 °C 34462.7 hPa SSE 2.6 km/h 7.7 km/h 58 % 0 mm
06:05 -6.3 °C -11.2 °C 34462.7 hPa ESE 7.7 km/h 10.3 km/h 57 % 0 mm
11:10 -6.3 °C -11.2 °C 34462.7 hPa ESE 11.1 km/h 11.1 km/h 57 % 0 mm
11:15 -6.2 °C -11.1 °C 34462.7 hPa NNE 9 km/h 9 km/h 57 % 0 mm
11:20 -6 °C -11.1 °C 34428.8 hPa NE 11.9 km/h 11.9 km/h 56 % 0 mm
11:25 -5.9 °C -11 °C 34428.8 hPa NNE 11.9 km/h 11.9 km/h 56 % 0 mm
11:30 -5.9 °C -11.2 °C 34428.8 hPa NE 9 km/h 9 km/h 55 % 0 mm
11:35 -6 °C -11.4 °C 34428.8 hPa ESE 15.3 km/h 15.3 km/h 54 % 0 mm
11:40 -5.8 °C -11.2 °C 34428.8 hPa ESE 12.7 km/h 12.7 km/h 54 % 0 mm
11:45 -5.8 °C -11.3 °C 34428.8 hPa ENE 14 km/h 14 km/h 53 % 0 mm
11:50 -5.8 °C -11.3 °C 34395 hPa East 9.3 km/h 9.3 km/h 53 % 0 mm
12:00 -5.4 °C -11.2 °C 34395 hPa ENE 9 km/h 9 km/h 52 % 0 mm
12:05 -5.4 °C -11.2 °C 34361.1 hPa South 3.7 km/h 3.7 km/h 52 % 0 mm
12:10 -5.2 °C -11.2 °C 34361.1 hPa East 11.9 km/h 11.9 km/h 51 % 0 mm
12:15 -5.1 °C -11 °C 34361.1 hPa ESE 15 km/h 15 km/h 51 % 0 mm
12:20 -5.1 °C -11.2 °C 34361.1 hPa SW 8.5 km/h 8.5 km/h 50 % 0 mm
12:25 -4.4 °C -10.8 °C 34361.1 hPa ESE 8 km/h 8 km/h 49 % 0 mm
12:30 -4.9 °C -11.7 °C 34361.1 hPa ENE 11.9 km/h 11.9 km/h 46 % 0 mm
12:35 -5.1 °C -11.3 °C 34361.1 hPa SW 8 km/h 8 km/h 49 % 0 mm
12:40 -4.9 °C -11.6 °C 34361.1 hPa SSW 9 km/h 9 km/h 47 % 0 mm
12:45 -4.9 °C -11.6 °C 34361.1 hPa WSW 6 km/h 6.3 km/h 47 % 0 mm
12:50 -4.2 °C -11.3 °C 34327.3 hPa South 11.6 km/h 11.6 km/h 45 % 0 mm
12:55 -4 °C -11.1 °C 34327.3 hPa SW 8 km/h 8 km/h 45 % 0 mm
13:00 -3.9 °C -11 °C 34327.3 hPa WSW 15.6 km/h 15.6 km/h 45 % 0 mm
13:05 -3.7 °C -11.6 °C 34327.3 hPa South 11.9 km/h 11.9 km/h 41 % 0 mm
13:10 -3.7 °C -11.6 °C 34327.3 hPa ENE 15 km/h 15 km/h 41 % 0 mm
13:15 -3.7 °C -11.6 °C 34327.3 hPa SSW 9 km/h 9 km/h 41 % 0 mm
13:25 -3.7 °C -11.6 °C 34327.3 hPa SSW 11.1 km/h 11.6 km/h 41 % 0 mm
13:30 -3.9 °C -11.8 °C 34327.3 hPa SW 11.9 km/h 11.9 km/h 41 % 0 mm
13:35 -3.9 °C -11.8 °C 34327.3 hPa SSE 15 km/h 15 km/h 41 % 0 mm
13:45 -3.5 °C -11.4 °C 34327.3 hPa South 6.3 km/h 6.3 km/h 41 % 0 mm
13:50 -3.5 °C -11.4 °C 34293.4 hPa SSE 15.3 km/h 15.3 km/h 41 % 0 mm
13:55 -3.5 °C -11.4 °C 34293.4 hPa South 17.9 km/h 17.9 km/h 41 % 0 mm
14:00 -3.7 °C -12.3 °C 34293.4 hPa ESE 22 km/h 22 km/h 38 % 0 mm
14:05 -3.8 °C -12.1 °C 34293.4 hPa East 20.9 km/h 20.9 km/h 39 % 0 mm
14:10 -3.8 °C -11.9 °C 34293.4 hPa East 26.9 km/h 26.9 km/h 40 % 0 mm
14:20 -4.3 °C -11.9 °C 34256.2 hPa ESE 20.9 km/h 20.9 km/h 42 % 0 mm
14:25 -4.4 °C -11.7 °C 34256.2 hPa West 23.8 km/h 23.8 km/h 44 % 0 mm
14:30 -4 °C -11.3 °C 34256.2 hPa ESE 18.3 km/h 18.3 km/h 44 % 0 mm
14:35 -4.2 °C -11.4 °C 34256.2 hPa ESE 11.9 km/h 11.9 km/h 44 % 0 mm
14:40 -4.6 °C -11.6 °C 34256.2 hPa SSE 20.9 km/h 20.9 km/h 45 % 0 mm
14:46 -4.5 °C -11.3 °C 34256.2 hPa East 20.9 km/h 20.9 km/h 46 % 0 mm
14:56 -4.3 °C -10.9 °C 34256.2 hPa WSW 20.9 km/h 20.9 km/h 47 % 0 mm
15:01 -4.3 °C -10.9 °C 34256.2 hPa WNW 10.3 km/h 10.3 km/h 47 % 0 mm
15:06 -4.4 °C -11.1 °C 34256.2 hPa South 11.9 km/h 11.9 km/h 47 % 0 mm
15:11 -4.7 °C -11.3 °C 34256.2 hPa ESE 25.9 km/h 25.9 km/h 47 % 0 mm
15:16 -4.9 °C -11.5 °C 34256.2 hPa SSW 17.9 km/h 17.9 km/h 47 % 0 mm
15:21 -4.7 °C -11.3 °C 34256.2 hPa ESE 15 km/h 15 km/h 47 % 0 mm
15:26 -4.7 °C -11.3 °C 34256.2 hPa East 15 km/h 15 km/h 47 % 0 mm
15:31 -4.6 °C -11.2 °C 34256.2 hPa East 9 km/h 9 km/h 47 % 0 mm
15:36 -4.3 °C -10.9 °C 34256.2 hPa ESE 15 km/h 15 km/h 47 % 0 mm
15:41 -3.9 °C -10.8 °C 34256.2 hPa ESE 16.1 km/h 16.1 km/h 46 % 0 mm
15:46 -3.7 °C -10.8 °C 34256.2 hPa SE 26.9 km/h 26.9 km/h 45 % 0 mm
15:51 -4.2 °C -11.1 °C 34256.2 hPa ESE 20.9 km/h 20.9 km/h 46 % 0 mm
15:56 -4.3 °C -11.2 °C 34256.2 hPa ESE 26.9 km/h 26.9 km/h 46 % 0 mm
16:01 -4.4 °C -11.2 °C 34256.2 hPa NE 26.9 km/h 26.9 km/h 46 % 0 mm
16:06 -4.3 °C -11.2 °C 34256.2 hPa ESE 33.2 km/h 33.2 km/h 46 % 0 mm
16:11 -4.6 °C -11.4 °C 34256.2 hPa ESE 26.9 km/h 26.9 km/h 46 % 0 mm
16:16 -4.6 °C -11.4 °C 34256.2 hPa SE 20.9 km/h 20.9 km/h 46 % 0 mm
16:21 -4.4 °C -11.2 °C 34222.3 hPa ENE 29.8 km/h 29.8 km/h 46 % 0 mm
16:26 -4.4 °C -11.3 °C 34222.3 hPa ESE 23.8 km/h 23.8 km/h 46 % 0 mm
16:31 -4.6 °C -11.4 °C 34222.3 hPa ENE 32.8 km/h 32.8 km/h 46 % 0 mm
16:36 -4.6 °C -11.4 °C 34256.2 hPa ENE 26.9 km/h 26.9 km/h 46 % 0 mm
16:41 -4.5 °C -11.3 °C 34256.2 hPa East 23.8 km/h 23.8 km/h 46 % 0 mm
16:46 -4.7 °C -11.5 °C 34256.2 hPa NE 32.8 km/h 32.8 km/h 46 % 0 mm
16:51 -4.7 °C -11.5 °C 34256.2 hPa ESE 29.8 km/h 29.8 km/h 46 % 0 mm
16:56 -4.7 °C -11.5 °C 34256.2 hPa East 26.9 km/h 26.9 km/h 46 % 0 mm
17:01 -4.7 °C -11.6 °C 34256.2 hPa ESE 26.9 km/h 26.9 km/h 46 % 0 mm
17:06 -4.5 °C -11.3 °C 34256.2 hPa ESE 23.8 km/h 23.8 km/h 46 % 0 mm
17:11 -4.3 °C -11.2 °C 34256.2 hPa ESE 20.9 km/h 20.9 km/h 46 % 0 mm
17:16 -4.4 °C -11.3 °C 34256.2 hPa ENE 25.1 km/h 25.1 km/h 46 % 0 mm
17:21 -4.6 °C -11.4 °C 34256.2 hPa SE 20.3 km/h 20.3 km/h 46 % 0 mm
17:26 -4.6 °C -11.4 °C 34256.2 hPa ENE 20.9 km/h 20.9 km/h 46 % 0 mm
17:31 -4.6 °C -11.4 °C 34256.2 hPa East 22 km/h 22 km/h 46 % 0 mm
17:36 -4.4 °C -11.3 °C 34293.4 hPa South 11.9 km/h 11.9 km/h 46 % 0 mm
17:41 -4.3 °C -11.2 °C 34293.4 hPa SW 15 km/h 15 km/h 46 % 0 mm
17:46 -4 °C -11.1 °C 34293.4 hPa SSW 20.9 km/h 20.9 km/h 45 % 0 mm
17:51 -3.7 °C -11.2 °C 34256.2 hPa South 11.9 km/h 11.9 km/h 43 % 0 mm
17:56 -3.9 °C -11.3 °C 34256.2 hPa SSW 20.9 km/h 20.9 km/h 43 % 0 mm
18:01 -4.1 °C -11.5 °C 34256.2 hPa SSW 11.9 km/h 11.9 km/h 43 % 0 mm
18:06 -4.1 °C -11.6 °C 34256.2 hPa SW 17.9 km/h 17.9 km/h 43 % 0 mm
18:11 -4.3 °C -11.7 °C 34256.2 hPa WSW 11.9 km/h 11.9 km/h 43 % 0 mm
18:16 -4.3 °C -11.8 °C 34256.2 hPa SW 17.9 km/h 17.9 km/h 43 % 0 mm
18:21 -4.3 °C -11.8 °C 34256.2 hPa SW 16.1 km/h 16.1 km/h 43 % 0 mm
18:26 -4.3 °C -11.8 °C 34256.2 hPa SSW 23.8 km/h 23.8 km/h 43 % 0 mm
18:31 -4.4 °C -11.8 °C 34256.2 hPa WSW 20.9 km/h 20.9 km/h 43 % 0 mm
18:36 -4.7 °C -12.1 °C 34293.4 hPa SW 22 km/h 22 km/h 43 % 0 mm
18:41 -4.7 °C -12.1 °C 34293.4 hPa WSW 17.9 km/h 17.9 km/h 43 % 0 mm
18:46 -4.6 °C -11.8 °C 34293.4 hPa SW 11.9 km/h 11.9 km/h 44 % 0 mm
18:51 -4.7 °C -11.9 °C 34256.2 hPa WSW 26.9 km/h 26.9 km/h 44 % 0 mm
18:56 -4.7 °C -12.1 °C 34256.2 hPa SW 17.9 km/h 17.9 km/h 43 % 0 mm
19:01 -4.9 °C -12.3 °C 34256.2 hPa SW 17.9 km/h 17.9 km/h 43 % 0 mm
19:06 -4.9 °C -12.3 °C 34256.2 hPa WSW 11.9 km/h 16.1 km/h 43 % 0 mm
19:11 -4.9 °C -12.3 °C 34256.2 hPa SW 17.9 km/h 17.9 km/h 43 % 0 mm
19:16 -4.9 °C -12.3 °C 34256.2 hPa SW 15 km/h 15 km/h 43 % 0 mm
19:21 -5.1 °C -12.3 °C 34256.2 hPa WSW 11.9 km/h 11.9 km/h 44 % 0 mm
19:31 -5.2 °C -12.3 °C 34256.2 hPa SW 15 km/h 15 km/h 44 % 0 mm
19:36 -5.2 °C -12.4 °C 34256.2 hPa SSW 11.9 km/h 11.9 km/h 44 % 0 mm
19:41 -5.3 °C -12.3 °C 34256.2 hPa SSW 15 km/h 15 km/h 45 % 0 mm
19:46 -5.4 °C -12.3 °C 34256.2 hPa SW 15.3 km/h 15.3 km/h 45 % 0 mm
19:51 -5.4 °C -12.4 °C 34256.2 hPa SW 20.9 km/h 20.9 km/h 45 % 0 mm
19:56 -5.5 °C -12.4 °C 34256.2 hPa SSW 20.9 km/h 20.9 km/h 45 % 0 mm
20:01 -5.6 °C -12.5 °C 34256.2 hPa SW 15 km/h 15 km/h 45 % 0 mm
20:05 -8.4 °C -11.6 °C 34293.4 hPa ENE 2.6 km/h   69 % 0 mm
20:06 -5.6 °C -12.5 °C 34256.2 hPa SSW 11.9 km/h 11.9 km/h 45 % 0 mm
20:11 -5.7 °C -12.4 °C 34256.2 hPa SSW 15 km/h 15 km/h 46 % 0 mm
20:15 -8.5 °C -11.6 °C 34293.4 hPa Calm   5.1 km/h 70 % 0 mm
20:16 -5.7 °C -12.4 °C 34256.2 hPa SW 15.3 km/h 15.3 km/h 46 % 0 mm
20:25 -8.6 °C -11.7 °C 34327.3 hPa Calm     70 % 0 mm
20:26 -5.8 °C -12.6 °C 34256.2 hPa SW 9 km/h 9 km/h 46 % 0 mm
20:31 -5.9 °C -12.5 °C 34256.2 hPa SW 20.9 km/h 20.9 km/h 47 % 0 mm
20:35 -8.7 °C -11.7 °C 34327.3 hPa SE 2.6 km/h 5.1 km/h 70 % 0 mm
20:36 -6.1 °C -12.6 °C 34256.2 hPa WSW 11.9 km/h 11.9 km/h 47 % 0 mm
20:41 -6.1 °C -12.6 °C 34256.2 hPa West 6 km/h 6 km/h 47 % 0 mm
20:45 -8.8 °C -11.8 °C 34327.3 hPa ENE 2.6 km/h 5.1 km/h 70 % 0 mm
20:46 -6.2 °C -12.5 °C 34256.2 hPa SW 8 km/h 8 km/h 48 % 0 mm
20:51 -6.2 °C -12.6 °C 34256.2 hPa SW 9 km/h 9 km/h 48 % 0 mm
20:56 -6.3 °C -12.6 °C 34256.2 hPa WSW 8.5 km/h 8.5 km/h 48 % 0 mm
21:01 -6.3 °C -12.5 °C 34222.3 hPa SW 9 km/h 9 km/h 49 % 0 mm
21:05 -8.9 °C -12 °C 34327.3 hPa ENE 2.6 km/h 2.6 km/h 70 % 0 mm
21:06 -6.4 °C -12.6 °C 34222.3 hPa SW 11.9 km/h 11.9 km/h 49 % 0 mm
21:11 -6.6 °C -12.7 °C 34222.3 hPa SW 9 km/h 9 km/h 49 % 0 mm
21:16 -6.6 °C -12.7 °C 34256.2 hPa SW 6 km/h 6 km/h 49 % 0 mm
21:21 -6.7 °C -12.8 °C 34256.2 hPa SW 6 km/h 6 km/h 49 % 0 mm
21:25 -9.2 °C -12.1 °C 34327.3 hPa Calm     71 % 0 mm
21:26 -6.7 °C -12.7 °C 34256.2 hPa SW 3.1 km/h   50 % 0 mm
21:31 -6.8 °C -12.7 °C 34256.2 hPa SSW 9 km/h 9 km/h 50 % 0 mm
21:35 -9.3 °C -12.3 °C 34327.3 hPa Calm     70 % 0 mm
21:36 -6.8 °C -12.8 °C 34256.2 hPa SW 3.1 km/h 4.2 km/h 50 % 0 mm
21:41 -6.9 °C -12.9 °C 34256.2 hPa Calm     50 % 0 mm
21:46 -6.9 °C -12.9 °C 34256.2 hPa SSW 3.1 km/h   50 % 0 mm
21:51 -7 °C -12.9 °C 34256.2 hPa WSW 3.7 km/h 3.7 km/h 50 % 0 mm
21:55 -9.3 °C -12.1 °C 34327.3 hPa Calm   5.1 km/h 72 % 0 mm
21:57 -7 °C -12.9 °C 34256.2 hPa SW 6.3 km/h 6.3 km/h 50 % 0 mm
22:02 -7 °C -12.9 °C 34256.2 hPa WSW 6 km/h 6 km/h 50 % 0 mm
22:05 -9.4 °C -12.2 °C 34327.3 hPa Calm     72 % 0 mm
22:07 -7.1 °C -12.8 °C 34256.2 hPa SW 6 km/h 6 km/h 51 % 0 mm
22:12 -7.1 °C -12.9 °C 34256.2 hPa WSW 5.1 km/h 5.1 km/h 51 % 0 mm
22:15 -9.5 °C -12.3 °C 34327.3 hPa Calm     72 % 0 mm
22:17 -7.2 °C -12.9 °C 34293.4 hPa Calm     51 % 0 mm
22:22 -7.2 °C -13 °C 34293.4 hPa WSW 3.1 km/h   51 % 0 mm
22:25 -9.8 °C -12.7 °C 34327.3 hPa South 5.1 km/h 7.7 km/h 71 % 0 mm
22:27 -7.3 °C -12.9 °C 34293.4 hPa Calm     52 % 0 mm
22:32 -7.3 °C -12.9 °C 34293.4 hPa Calm     52 % 0 mm
22:35 -10.1 °C -12.7 °C 34327.3 hPa SW 2.6 km/h 5.1 km/h 73 % 0 mm
22:37 -7.4 °C -13 °C 34293.4 hPa Calm     52 % 0 mm
22:42 -7.4 °C -12.9 °C 34293.4 hPa Calm     53 % 0 mm
22:45 -10.1 °C -12.7 °C 34327.3 hPa Calm   5.1 km/h 73 % 0 mm
22:47 -7.4 °C -12.9 °C 34293.4 hPa Calm     53 % 0 mm
22:52 -7.5 °C -12.9 °C 34293.4 hPa Calm     53 % 0 mm
22:55 -10.1 °C -12.7 °C 34327.3 hPa Calm     74 % 0 mm
22:57 -7.5 °C -12.9 °C 34293.4 hPa ENE 3.1 km/h 3.7 km/h 53 % 0 mm
23:02 -7.5 °C -12.8 °C 34293.4 hPa Calm     54 % 0 mm
23:05 -10.1 °C -12.6 °C 34327.3 hPa Calm     74 % 0 mm
23:07 -7.6 °C -12.8 °C 34293.4 hPa ENE 6 km/h 6 km/h 54 % 0 mm
23:12 -7.6 °C -12.8 °C 34293.4 hPa NE 3.1 km/h   54 % 0 mm
23:15 -10.1 °C -12.6 °C 34327.3 hPa Calm   2.6 km/h 74 % 0 mm
23:17 -7.6 °C -12.7 °C 34327.3 hPa ESE 6.8 km/h 6.8 km/h 55 % 0 mm
23:22 -7.6 °C -12.7 °C 34327.3 hPa East 7.6 km/h   55 % 0 mm
23:25 -10.1 °C -12.4 °C 34327.3 hPa Calm   2.6 km/h 75 % 0 mm
23:27 -7.7 °C -12.6 °C 34327.3 hPa ENE 9 km/h 9 km/h 56 % 0 mm
23:32 -7.7 °C -12.7 °C 34327.3 hPa NNE 11.9 km/h 11.9 km/h 56 % 0 mm
23:35 -10.2 °C -12.7 °C 34327.3 hPa North 2.6 km/h 5.1 km/h 74 % 0 mm
23:37 -7.8 °C -12.6 °C 34327.3 hPa NNE 6.8 km/h 6.8 km/h 57 % 0 mm
23:42 -7.8 °C -12.6 °C 34327.3 hPa NE 6.3 km/h 6.3 km/h 57 % 0 mm
23:45 -10.2 °C -12.4 °C 34327.3 hPa Calm   2.6 km/h 76 % 0 mm
23:47 -7.9 °C -12.6 °C 34327.3 hPa ENE 6.3 km/h 6.3 km/h 58 % 0 mm
23:52 -7.9 °C -12.6 °C 34327.3 hPa ENE 6 km/h 6 km/h 58 % 0 mm
23:55 -10.2 °C -12.6 °C 34327.3 hPa Calm     76 % 0 mm
23:57 -8 °C -12.5 °C 34327.3 hPa NE 9 km/h 9 km/h 59 % 0 mm
Meteo Sesrovires
Elogis d' Weather Underground - 1.5 mb

Guio original per  Jim McMurry - jmcmurry@mwt.net Adaptat per a la plantilla per  Wim van der Kuil - Leuven-Template.eu

Trobareu la nostra informacio del temps tambe a:

Weather Underground

AWEKAS